Main page
METAR-TAF:

METAR-TAF

Airports :

Dillant–Hopkins Airport

Keene, New Hampshire, United States

latitude: 42-54N, longitude: 072-16W, elevation: 489 ft

Current weather observation

The report was made 29 minutes ago, at 04:56 UTC
Wind 8 mph from the South
Temperature 61°F
Humidity 77%
Pressure 29.92 in. Hg
Visibility: 10 miles
Overcast at a height of 5500 ft

METAR: KEEN 210456Z AUTO 18007KT 10SM OVC055 16/12 A2992 RMK AO2 SLP148 T01610117 402110161 $

Time: 01:25 (05:25 UTC)


TAF: missing

Weather observations and forecasts of more than 4000 airports (METAR and TAF reports).

The available stations are represented by yellow and red dots on the map.

Hover mouse over dot to see the name of the station.

Then click to see weather observations and forecasts.

To change the map : click on the green buttons with a black cross to zoom in, on the green button with a dash to zoom out, or on the green arrows for adjacent maps.


METAR-TAF: